createdAt,value
2022-12-08T00:00:35.985Z,4.51
2022-12-08T00:03:02.464Z,4.46
2022-12-08T00:05:28.889Z,4.31
2022-12-08T00:07:55.250Z,4.26
2022-12-08T00:10:47.717Z,4.23
2022-12-08T00:13:07.890Z,4.10
2022-12-08T00:15:34.207Z,4.05
2022-12-08T00:18:00.494Z,4.08
2022-12-08T00:20:26.808Z,4.06
2022-12-08T00:22:53.133Z,4.00
2022-12-08T00:25:19.428Z,4.09
2022-12-08T00:27:45.730Z,4.30
2022-12-08T00:30:12.071Z,4.18
2022-12-08T00:32:38.354Z,4.16
2022-12-08T00:35:05.081Z,4.12
2022-12-08T00:37:31.524Z,4.13
2022-12-08T00:39:57.821Z,4.27
2022-12-08T00:42:24.107Z,4.33
2022-12-08T00:44:50.426Z,4.40
2022-12-08T00:47:20.992Z,4.40
2022-12-08T00:49:49.799Z,4.41
2022-12-08T00:52:16.121Z,4.42
2022-12-08T00:54:42.416Z,4.45
2022-12-08T00:57:08.734Z,4.41
2022-12-08T00:59:35.063Z,4.47
2022-12-08T01:02:01.398Z,4.39
2022-12-08T01:04:27.695Z,4.47
2022-12-08T01:06:54.024Z,4.44
2022-12-08T01:09:20.324Z,4.45
2022-12-08T01:11:46.616Z,4.33
2022-12-08T01:14:12.935Z,4.48
2022-12-08T01:16:39.291Z,4.45
2022-12-08T01:19:05.632Z,4.46
2022-12-08T01:21:31.949Z,4.48
2022-12-08T01:23:58.241Z,4.43
2022-12-08T01:26:24.538Z,4.45
2022-12-08T01:28:50.860Z,4.17
2022-12-08T01:31:17.260Z,4.37
2022-12-08T01:33:43.625Z,4.42
2022-12-08T01:36:09.956Z,3.94
2022-12-08T01:38:36.232Z,4.10
2022-12-08T01:41:02.506Z,4.03
2022-12-08T01:43:28.809Z,3.96
2022-12-08T01:45:55.191Z,3.83
2022-12-08T01:48:21.565Z,3.96
2022-12-08T01:50:47.902Z,3.91
2022-12-08T01:53:14.192Z,4.08
2022-12-08T01:55:40.483Z,4.05
2022-12-08T01:58:06.794Z,4.20
2022-12-08T02:00:33.096Z,4.28
2022-12-08T02:02:59.453Z,4.19
2022-12-08T02:05:25.873Z,4.20
2022-12-08T02:07:52.182Z,4.28
2022-12-08T02:10:18.546Z,4.19
2022-12-08T02:12:44.853Z,4.14
2022-12-08T02:15:11.145Z,4.26
2022-12-08T02:17:37.446Z,4.33
2022-12-08T02:20:04.140Z,4.20
2022-12-08T02:22:30.618Z,4.31
2022-12-08T02:24:56.919Z,4.31
2022-12-08T02:27:23.255Z,4.34
2022-12-08T02:29:49.553Z,4.35
2022-12-08T02:32:15.853Z,4.29
2022-12-08T02:34:42.197Z,4.26
2022-12-08T02:37:08.493Z,4.12
2022-12-08T02:39:34.780Z,4.31
2022-12-08T02:42:01.167Z,4.18
2022-12-08T02:44:27.473Z,4.20
2022-12-08T02:46:53.763Z,4.19
2022-12-08T02:49:20.095Z,4.22
2022-12-08T02:51:46.395Z,4.20
2022-12-08T02:54:12.691Z,4.22
2022-12-08T02:56:39.030Z,4.15
2022-12-08T02:59:05.339Z,4.25
2022-12-08T03:01:31.770Z,4.21
2022-12-08T03:03:58.114Z,4.21
2022-12-08T03:06:24.422Z,4.25
2022-12-08T03:08:50.720Z,4.26
2022-12-08T03:11:17.047Z,4.27
2022-12-08T03:13:43.332Z,4.26
2022-12-08T03:16:09.788Z,4.17
2022-12-08T03:18:36.198Z,4.17
2022-12-08T03:21:02.490Z,4.27
2022-12-08T03:23:28.790Z,4.08
2022-12-08T03:25:55.142Z,4.15
2022-12-08T03:28:21.444Z,4.05
2022-12-08T03:30:47.841Z,4.02
2022-12-08T03:33:14.201Z,4.00
2022-12-08T03:35:40.509Z,4.09
2022-12-08T03:38:06.799Z,4.05
2022-12-08T03:40:33.120Z,4.17
2022-12-08T03:42:59.414Z,4.21
2022-12-08T03:45:25.705Z,4.23
2022-12-08T03:47:52.080Z,4.11
2022-12-08T03:50:18.382Z,4.21
2022-12-08T03:52:44.703Z,4.17
2022-12-08T03:55:11.020Z,4.14
2022-12-08T03:57:37.314Z,4.15
2022-12-08T04:00:03.940Z,4.21
2022-12-08T04:02:30.611Z,4.24
2022-12-08T04:04:56.965Z,4.20
2022-12-08T04:07:23.259Z,4.21
2022-12-08T04:09:49.584Z,4.22
2022-12-08T04:12:15.881Z,4.24
2022-12-08T04:14:42.176Z,4.25
2022-12-08T04:17:08.509Z,4.21
2022-12-08T04:19:34.808Z,4.03
2022-12-08T04:22:01.102Z,4.08
2022-12-08T04:24:27.444Z,4.00
2022-12-08T04:26:53.757Z,4.15
2022-12-08T04:29:20.063Z,4.23
2022-12-08T04:31:46.430Z,4.15
2022-12-08T04:34:12.785Z,4.15
2022-12-08T04:36:39.117Z,4.25
2022-12-08T04:39:05.432Z,4.05
2022-12-08T04:41:31.732Z,4.19
2022-12-08T04:43:58.026Z,4.21
2022-12-08T04:46:24.427Z,4.18
2022-12-08T04:48:50.785Z,4.25
2022-12-08T04:51:17.114Z,4.25
2022-12-08T04:53:46.460Z,4.21
2022-12-08T04:56:13.328Z,4.15
2022-12-08T04:58:39.633Z,4.01
2022-12-08T05:01:05.980Z,4.18
2022-12-08T05:03:32.329Z,4.25
2022-12-08T05:05:59.406Z,4.19
2022-12-08T05:08:26.846Z,4.17
2022-12-08T05:10:53.485Z,4.06
2022-12-08T05:13:19.818Z,4.17
2022-12-08T05:15:46.150Z,4.09
2022-12-08T05:18:12.441Z,4.13
2022-12-08T05:20:38.749Z,4.13
2022-12-08T05:23:05.069Z,4.01
2022-12-08T05:25:31.372Z,3.97
2022-12-08T05:28:17.746Z,3.99
2022-12-08T05:30:43.937Z,3.83
2022-12-08T05:33:10.213Z,3.93
2022-12-08T05:35:36.502Z,3.75
2022-12-08T05:38:02.821Z,3.71
2022-12-08T05:40:29.093Z,3.77
2022-12-08T05:42:55.379Z,3.67
2022-12-08T05:45:21.702Z,3.52
2022-12-08T05:47:48.031Z,3.32
2022-12-08T05:50:14.331Z,3.44
2022-12-08T05:52:40.655Z,3.25
2022-12-08T05:55:06.957Z,3.25
2022-12-08T05:57:33.256Z,3.26
2022-12-08T06:02:26.127Z,3.10
2022-12-08T06:04:52.477Z,3.26
2022-12-08T06:07:18.801Z,3.32
2022-12-08T06:09:45.100Z,3.21
2022-12-08T06:12:11.401Z,3.27
2022-12-08T06:14:37.810Z,3.21
2022-12-08T06:17:04.184Z,3.28
2022-12-08T06:19:30.527Z,3.00
2022-12-08T06:21:56.849Z,3.17
2022-12-08T06:24:23.156Z,3.04
2022-12-08T06:26:49.452Z,3.20
2022-12-08T06:29:15.783Z,3.22
2022-12-08T06:31:42.108Z,3.28
2022-12-08T06:34:08.422Z,3.37
2022-12-08T06:36:34.745Z,3.40
2022-12-08T06:39:01.028Z,3.45
2022-12-08T06:41:27.304Z,3.40
2022-12-08T06:43:53.615Z,3.27
2022-12-08T06:46:21.489Z,2.97
2022-12-08T06:48:47.824Z,2.77
2022-12-08T06:51:14.142Z,3.01
2022-12-08T06:53:40.427Z,3.25
2022-12-08T06:56:06.791Z,3.28
2022-12-08T06:58:33.103Z,3.21
2022-12-08T07:00:59.469Z,3.45
2022-12-08T07:03:25.808Z,3.59
2022-12-08T07:05:52.166Z,3.43
2022-12-08T07:08:18.531Z,3.57
2022-12-08T07:10:44.868Z,3.68
2022-12-08T07:13:11.202Z,3.70
2022-12-08T07:15:37.503Z,3.55
2022-12-08T07:18:03.798Z,3.73
2022-12-08T07:20:30.121Z,3.41
2022-12-08T07:22:56.428Z,3.54
2022-12-08T07:25:22.723Z,3.67
2022-12-08T07:27:49.044Z,3.57
2022-12-08T07:30:15.336Z,3.73
2022-12-08T07:32:41.636Z,3.71
2022-12-08T07:35:07.963Z,3.72
2022-12-08T07:37:34.258Z,3.72
2022-12-08T07:40:00.585Z,3.87
2022-12-08T07:42:26.913Z,3.84
2022-12-08T07:44:53.235Z,3.87
2022-12-08T07:47:19.531Z,3.94
2022-12-08T07:49:45.876Z,3.83
2022-12-08T07:52:12.171Z,3.86
2022-12-08T07:54:38.461Z,3.82
2022-12-08T07:57:04.780Z,3.92
2022-12-08T07:59:31.079Z,3.93
2022-12-08T08:02:22.388Z,3.83
2022-12-08T08:04:43.709Z,3.86
2022-12-08T08:07:10.027Z,3.85
2022-12-08T08:09:36.328Z,3.92
2022-12-08T08:12:29.495Z,4.04
2022-12-08T08:14:48.960Z,4.01
2022-12-08T08:17:15.389Z,3.87
2022-12-08T08:19:41.756Z,3.67
2022-12-08T08:22:08.049Z,3.40
2022-12-08T08:24:34.360Z,3.27
2022-12-08T08:27:00.659Z,3.20
2022-12-08T08:29:26.951Z,3.25
2022-12-08T08:31:53.276Z,3.39
2022-12-08T08:34:19.566Z,3.54
2022-12-08T08:36:45.875Z,3.74
2022-12-08T08:39:12.222Z,3.84
2022-12-08T08:41:38.538Z,3.92
2022-12-08T08:44:04.903Z,4.04
2022-12-08T08:46:31.314Z,4.14
2022-12-08T08:48:57.664Z,4.08
2022-12-08T08:51:23.969Z,3.99
2022-12-08T08:53:50.291Z,4.08
2022-12-08T08:56:16.580Z,4.21
2022-12-08T08:58:42.879Z,4.24
2022-12-08T09:03:00.488Z,5.94
2022-12-08T09:08:03.003Z,4.53
2022-12-08T09:10:29.488Z,4.94
2022-12-08T09:12:55.868Z,4.86
2022-12-08T09:15:22.488Z,4.08
2022-12-08T09:17:48.849Z,3.41
2022-12-08T09:20:15.203Z,3.18
2022-12-08T09:22:41.569Z,3.38
2022-12-08T09:25:08.616Z,3.48
2022-12-08T09:27:35.021Z,3.78
2022-12-08T09:30:01.710Z,3.23
2022-12-08T09:32:28.164Z,2.95
2022-12-08T09:34:54.532Z,2.78
2022-12-08T09:37:20.875Z,2.64
2022-12-08T09:39:47.241Z,2.71
2022-12-08T09:42:13.587Z,3.00
2022-12-08T09:44:39.958Z,3.11
2022-12-08T09:47:06.347Z,2.99
2022-12-08T09:49:32.870Z,2.96
2022-12-08T09:51:59.246Z,2.73
2022-12-08T09:54:25.631Z,2.62
2022-12-08T09:56:51.995Z,2.94
2022-12-08T09:59:18.379Z,2.94
2022-12-08T10:01:44.783Z,3.12
2022-12-08T10:04:11.181Z,3.60
2022-12-08T10:06:37.615Z,3.42
2022-12-08T10:09:03.951Z,3.85
2022-12-08T10:11:30.357Z,4.59
2022-12-08T10:13:56.741Z,4.94
2022-12-08T10:16:29.328Z,3.81
2022-12-08T10:18:56.299Z,3.02
2022-12-08T10:21:22.722Z,3.35
2022-12-08T10:23:49.063Z,3.82
2022-12-08T10:26:15.428Z,3.47
2022-12-08T10:28:45.193Z,3.52
2022-12-08T10:31:12.135Z,3.16
2022-12-08T10:33:38.597Z,3.91
2022-12-08T10:36:05.127Z,5.02
2022-12-08T10:38:31.485Z,5.43
2022-12-08T10:40:57.958Z,5.74
2022-12-08T10:43:24.339Z,5.52
2022-12-08T10:45:50.769Z,5.85
2022-12-08T10:48:17.171Z,6.47
2022-12-08T10:50:43.490Z,6.67
2022-12-08T10:53:09.825Z,5.64
2022-12-08T10:55:36.360Z,4.21
2022-12-08T10:58:02.715Z,3.55
2022-12-08T11:00:29.146Z,3.52
2022-12-08T11:02:55.840Z,4.05
2022-12-08T11:05:22.323Z,4.36
2022-12-08T11:07:48.717Z,4.72
2022-12-08T11:10:15.182Z,4.37
2022-12-08T11:12:41.503Z,4.96
2022-12-08T11:15:07.855Z,5.26
2022-12-08T11:17:34.224Z,5.51
2022-12-08T11:20:00.542Z,4.87
2022-12-08T11:22:26.970Z,4.87
2022-12-08T11:24:53.366Z,3.80
2022-12-08T11:27:19.680Z,3.46
2022-12-08T11:29:46.001Z,4.00
2022-12-08T11:32:12.404Z,4.22
2022-12-08T11:34:38.880Z,4.16
2022-12-08T11:37:08.018Z,5.21
2022-12-08T11:39:34.412Z,4.89
2022-12-08T11:42:00.796Z,5.63
2022-12-08T11:44:27.191Z,5.63
2022-12-08T11:46:53.571Z,5.48
2022-12-08T11:49:19.928Z,5.43
2022-12-08T11:51:46.279Z,6.53
2022-12-08T11:54:12.627Z,6.03
2022-12-08T11:56:38.993Z,6.15
2022-12-08T11:59:05.323Z,5.59
2022-12-08T12:01:31.685Z,4.59
2022-12-08T12:03:58.006Z,4.59
2022-12-08T12:06:46.372Z,4.81
2022-12-08T12:09:10.757Z,3.86
2022-12-08T12:11:37.100Z,4.55
2022-12-08T12:14:03.436Z,5.21
2022-12-08T12:16:29.906Z,5.13
2022-12-08T12:18:56.286Z,4.07
2022-12-08T12:21:24.034Z,4.40
2022-12-08T12:23:50.512Z,4.90
2022-12-08T12:26:17.058Z,5.80
2022-12-08T12:28:43.421Z,5.77
2022-12-08T12:31:09.943Z,6.58
2022-12-08T12:33:36.379Z,6.66
2022-12-08T12:36:05.770Z,6.48
2022-12-08T12:38:32.186Z,6.83
2022-12-08T12:40:58.540Z,6.04
2022-12-08T12:43:24.883Z,6.32
2022-12-08T12:45:51.479Z,6.82
2022-12-08T12:48:17.912Z,7.07
2022-12-08T12:50:44.265Z,7.19
2022-12-08T12:53:13.870Z,6.38
2022-12-08T12:55:40.394Z,6.08
2022-12-08T12:58:06.742Z,5.64
2022-12-08T13:00:33.209Z,6.34
2022-12-08T13:02:59.647Z,6.35
2022-12-08T13:05:26.115Z,6.62
2022-12-08T13:07:52.555Z,6.04
2022-12-08T13:10:19.104Z,6.27
2022-12-08T13:12:45.506Z,6.03
2022-12-08T13:15:11.865Z,6.34
2022-12-08T13:17:38.219Z,6.06
2022-12-08T13:20:04.977Z,5.38
2022-12-08T13:22:31.658Z,5.29
2022-12-08T13:24:58.057Z,5.26
2022-12-08T13:27:24.424Z,5.42
2022-12-08T13:30:01.365Z,6.00
2022-12-08T13:32:54.983Z,6.25
2022-12-08T13:35:20.278Z,5.59
2022-12-08T13:37:54.339Z,6.27
2022-12-08T13:40:21.071Z,6.68
2022-12-08T13:42:47.499Z,6.43
2022-12-08T13:46:04.365Z,5.98
2022-12-08T13:48:23.416Z,7.25
2022-12-08T13:59:05.717Z,6.82
2022-12-08T14:01:32.106Z,6.60
2022-12-08T14:04:33.757Z,6.71
2022-12-08T14:06:44.833Z,6.11
2022-12-08T14:09:11.494Z,5.90
2022-12-08T14:11:38.009Z,6.53
2022-12-08T14:14:04.358Z,6.72
2022-12-08T14:16:30.805Z,6.95
2022-12-08T14:18:57.182Z,7.05
2022-12-08T14:21:23.614Z,7.23
2022-12-08T14:23:49.980Z,7.16
2022-12-08T14:26:16.451Z,7.73
2022-12-08T14:28:45.055Z,7.61
2022-12-08T14:31:11.838Z,6.93
2022-12-08T14:33:38.211Z,6.88
2022-12-08T14:36:04.627Z,7.28
2022-12-08T14:38:31.102Z,7.36
2022-12-08T14:40:57.469Z,7.01
2022-12-08T14:43:23.822Z,6.07
2022-12-08T14:45:50.165Z,6.38
2022-12-08T14:48:16.516Z,5.76
2022-12-08T14:50:42.931Z,5.84
2022-12-08T14:53:09.287Z,6.20
2022-12-08T14:55:35.650Z,6.65
2022-12-08T14:58:02.055Z,7.08
2022-12-08T15:00:28.420Z,6.41
2022-12-08T15:02:54.756Z,7.17
2022-12-08T15:05:21.218Z,5.18
2022-12-08T15:07:47.662Z,5.03
2022-12-08T15:10:14.088Z,5.61
2022-12-08T15:12:40.477Z,5.57
2022-12-08T15:15:06.857Z,6.40
2022-12-08T15:17:33.192Z,6.67
2022-12-08T15:19:59.583Z,6.50
2022-12-08T15:22:25.969Z,6.51
2022-12-08T15:24:52.329Z,6.42
2022-12-08T15:27:18.756Z,6.19
2022-12-08T15:29:45.097Z,5.92
2022-12-08T15:32:11.499Z,5.07
2022-12-08T15:34:37.860Z,5.56
2022-12-08T15:37:04.213Z,5.76
2022-12-08T15:39:30.584Z,5.57
2022-12-08T15:41:57.008Z,5.44
2022-12-08T15:44:23.416Z,5.40
2022-12-08T15:46:49.846Z,5.44
2022-12-08T15:49:16.280Z,5.24
2022-12-08T15:51:42.693Z,5.15
2022-12-08T15:54:09.036Z,4.93
2022-12-08T15:56:45.308Z,4.46
2022-12-08T15:59:21.778Z,4.34
2022-12-08T16:01:48.325Z,4.15
2022-12-08T16:04:59.692Z,3.67
2022-12-08T16:09:47.470Z,4.36
2022-12-08T16:12:13.953Z,4.25
2022-12-08T16:15:47.049Z,4.50
2022-12-08T16:17:26.740Z,4.11
2022-12-08T16:19:53.170Z,4.02
2022-12-08T16:25:22.271Z,3.65
2022-12-08T16:30:35.798Z,3.54
2022-12-08T16:33:02.201Z,3.32
2022-12-08T16:35:28.603Z,3.69
2022-12-08T16:37:55.075Z,3.22
2022-12-08T16:40:21.486Z,3.06
2022-12-08T16:42:47.902Z,3.07
2022-12-08T16:45:14.343Z,3.08
2022-12-08T16:47:40.719Z,3.24
2022-12-08T16:50:07.081Z,3.46
2022-12-08T16:52:33.457Z,3.50
2022-12-08T16:54:59.851Z,3.06
2022-12-08T16:57:26.241Z,2.90
2022-12-08T16:59:52.598Z,2.91
2022-12-08T17:02:18.990Z,2.88
2022-12-08T17:04:45.509Z,3.35
2022-12-08T17:07:11.931Z,3.30
2022-12-08T17:09:38.274Z,3.09
2022-12-08T17:12:04.644Z,2.91
2022-12-08T17:14:31.042Z,3.04
2022-12-08T17:16:57.469Z,3.24
2022-12-08T17:19:23.907Z,3.50
2022-12-08T17:21:50.304Z,3.52
2022-12-08T17:24:21.789Z,3.42
2022-12-08T17:26:48.502Z,3.23
2022-12-08T17:29:14.935Z,2.80
2022-12-08T17:31:41.339Z,3.07
2022-12-08T17:34:09.250Z,3.07
2022-12-08T17:36:35.664Z,3.14
2022-12-08T17:39:01.978Z,3.45
2022-12-08T17:41:28.310Z,3.31
2022-12-08T17:43:54.704Z,3.54
2022-12-08T17:46:21.358Z,3.39
2022-12-08T17:48:49.453Z,3.58
2022-12-08T17:51:18.137Z,3.87
2022-12-08T17:53:44.492Z,3.81
2022-12-08T17:56:13.615Z,3.77
2022-12-08T17:58:40.042Z,4.08
2022-12-08T18:01:06.429Z,4.21
2022-12-08T18:03:32.788Z,3.89
2022-12-08T18:05:59.185Z,3.59
2022-12-08T18:08:25.602Z,4.09
2022-12-08T18:10:51.945Z,4.16
2022-12-08T18:13:18.346Z,4.18
2022-12-08T18:15:44.731Z,4.64
2022-12-08T18:18:11.133Z,4.37
2022-12-08T18:20:37.532Z,4.60
2022-12-08T18:23:03.885Z,4.74
2022-12-08T18:25:30.227Z,4.42
2022-12-08T18:27:56.638Z,4.83
2022-12-08T18:30:23.009Z,4.89
2022-12-08T18:32:54.180Z,5.22
2022-12-08T18:35:23.524Z,5.30
2022-12-08T18:37:49.920Z,5.82
2022-12-08T18:40:16.286Z,5.64
2022-12-08T18:42:42.677Z,5.95
2022-12-08T18:45:11.395Z,5.64
2022-12-08T18:47:37.762Z,6.18
2022-12-08T18:50:04.588Z,6.11
2022-12-08T18:52:32.487Z,4.75
2022-12-08T18:55:06.459Z,4.64
2022-12-08T18:57:35.972Z,4.87
2022-12-08T19:00:02.502Z,4.18
2022-12-08T19:02:31.285Z,4.34
2022-12-08T19:04:57.681Z,4.35
2022-12-08T19:07:24.070Z,4.61
2022-12-08T19:09:50.440Z,5.08
2022-12-08T19:12:16.821Z,5.14
2022-12-08T19:14:43.209Z,4.91
2022-12-08T19:17:09.556Z,4.75
2022-12-08T19:19:35.956Z,4.05
2022-12-08T19:22:02.368Z,3.91
2022-12-08T19:24:28.760Z,3.84
2022-12-08T19:26:55.135Z,3.56
2022-12-08T19:29:21.494Z,3.79
2022-12-08T19:31:47.969Z,3.78
2022-12-08T19:34:14.435Z,3.92
2022-12-08T19:36:40.777Z,4.27
2022-12-08T19:39:07.145Z,3.63
2022-12-08T19:41:33.575Z,4.11
2022-12-08T19:43:59.939Z,4.60
2022-12-08T19:46:26.428Z,4.27
2022-12-08T19:48:52.869Z,3.99
2022-12-08T19:51:19.236Z,3.83
2022-12-08T19:53:47.838Z,3.96
2022-12-08T19:56:17.082Z,4.62
2022-12-08T19:58:43.631Z,4.48
2022-12-08T20:01:11.445Z,4.31
2022-12-08T20:03:39.619Z,4.04
2022-12-08T20:06:06.187Z,4.34
2022-12-08T20:08:32.633Z,4.21
2022-12-08T20:10:59.126Z,4.99
2022-12-08T20:13:25.482Z,4.68
2022-12-08T20:15:51.877Z,4.91
2022-12-08T20:18:18.350Z,4.10
2022-12-08T20:20:44.734Z,4.40
2022-12-08T20:23:11.116Z,4.27
2022-12-08T20:25:37.733Z,4.53
2022-12-08T20:28:04.083Z,4.21
2022-12-08T20:30:30.484Z,4.36
2022-12-08T20:32:56.912Z,4.41
2022-12-08T20:35:23.280Z,4.40
2022-12-08T20:37:49.645Z,3.55
2022-12-08T20:40:16.022Z,3.61
2022-12-08T20:42:42.387Z,3.90
2022-12-08T20:45:09.139Z,4.05
2022-12-08T20:47:35.812Z,4.54
2022-12-08T20:50:02.278Z,4.86
2022-12-08T20:52:28.796Z,3.92
2022-12-08T20:54:55.217Z,4.65
2022-12-08T20:57:21.817Z,3.60
2022-12-08T20:59:48.334Z,3.99
2022-12-08T21:02:14.944Z,4.46
2022-12-08T21:04:41.432Z,4.64
2022-12-08T21:07:08.048Z,4.95
2022-12-08T21:09:34.566Z,3.35
2022-12-08T21:12:01.358Z,3.21
2022-12-08T21:14:27.909Z,3.30
2022-12-08T21:16:54.631Z,3.91
2022-12-08T21:19:21.772Z,3.62
2022-12-08T21:21:48.247Z,4.81
2022-12-08T21:24:14.743Z,3.99
2022-12-08T21:26:41.091Z,3.39
2022-12-08T21:29:07.467Z,3.96
2022-12-08T21:31:34.113Z,3.57
2022-12-08T21:34:00.598Z,4.19
2022-12-08T21:36:27.161Z,3.32
2022-12-08T21:38:53.713Z,3.49
2022-12-08T21:41:20.168Z,3.53
2022-12-08T21:43:46.625Z,3.38
2022-12-08T21:46:13.330Z,3.59
2022-12-08T21:48:39.813Z,3.20
2022-12-08T21:51:06.486Z,3.79
2022-12-08T21:53:33.003Z,4.06
2022-12-08T21:55:59.503Z,4.06
2022-12-08T21:58:25.944Z,4.27
2022-12-08T22:00:52.485Z,3.67
2022-12-08T22:03:19.020Z,4.72
2022-12-08T22:05:45.713Z,5.71
2022-12-08T22:08:13.916Z,5.85
2022-12-08T22:10:40.600Z,6.14
2022-12-08T22:13:07.239Z,6.28
2022-12-08T22:15:33.856Z,5.69
2022-12-08T22:18:00.369Z,5.69
2022-12-08T22:20:27.056Z,5.31
2022-12-08T22:22:53.532Z,5.96
2022-12-08T22:25:19.950Z,5.88
2022-12-08T22:27:46.324Z,5.85
2022-12-08T22:30:13.220Z,4.60
2022-12-08T22:32:40.042Z,5.30
2022-12-08T22:35:06.575Z,5.94
2022-12-08T22:37:33.194Z,5.48
2022-12-08T22:39:59.777Z,5.92
2022-12-08T22:42:26.137Z,5.51
2022-12-08T22:44:52.504Z,4.77
2022-12-08T22:47:18.842Z,4.80
2022-12-08T22:49:45.224Z,4.50
2022-12-08T22:52:11.885Z,4.54
2022-12-08T22:54:38.430Z,3.59
2022-12-08T22:57:04.782Z,3.59
2022-12-08T22:59:31.415Z,3.81
2022-12-08T23:01:57.777Z,4.06
2022-12-08T23:04:24.464Z,4.65
2022-12-08T23:06:51.170Z,4.47
2022-12-08T23:09:17.610Z,5.02
2022-12-08T23:11:44.209Z,5.44
2022-12-08T23:14:10.844Z,5.81
2022-12-08T23:16:37.424Z,6.13
2022-12-08T23:19:04.182Z,5.56
2022-12-08T23:21:30.716Z,5.94
2022-12-08T23:23:57.235Z,5.63
2022-12-08T23:26:23.820Z,5.36
2022-12-08T23:28:50.266Z,5.65
2022-12-08T23:31:16.918Z,5.40
2022-12-08T23:33:43.632Z,5.03
2022-12-08T23:36:10.084Z,4.12
2022-12-08T23:38:36.430Z,4.44
2022-12-08T23:41:02.950Z,3.23
2022-12-08T23:43:29.493Z,4.86
2022-12-08T23:45:56.024Z,5.02
2022-12-08T23:48:22.458Z,5.48
2022-12-08T23:50:49.091Z,4.91
2022-12-08T23:53:15.634Z,4.13
2022-12-08T23:55:42.072Z,5.06
2022-12-08T23:58:08.699Z,4.95
